Aérodrome :
LOGIN :

S'inscrire | Disclaimer

   EN    FR    IT 

 










Légende :    VFR   VFR Marginal   IFR   IFR Intensif   IFR Très Intensif
Visi : 
Plafond : 
>= 8 km
>= 3000ft
5 à 8 km
1000 à 3000 ft
1500m à 5 km
500 à 1000 ft
800 à 1500m
200 à 500 ft
< 800m
< 200 ft
Symboles :   Orages  Brouillard  Fortes neiges  Fortes précipitations  Vent > 20 kt
SIGMETs :   Divers  Orages  Givrage  Turbulence  Onde Orograph.  Cendres Volcan.







- Altitude de l'aérodrome : 1036 ft
- Code IATA : ERF


EDDE - Erfurt

DERNIER METAR :
  • 172050Z 26008KT 7000 2500S BCFG SCT002 SCT056 03/03 Q1024 TEMPO 2500 BCFG BKN002

METARs EXPIRÉS :
  • 172020Z 26009KT 8000 SCT002 SCT056 03/03 Q1024 TEMPO 2500 BCFG BKN002
  • 171950Z 26008KT 9999 SCT025 SCT056 03/03 Q1024 NOSIG
  • 171920Z 26008KT 9999 SCT040 SCT060 04/03 Q1024 NOSIG
  • 171850Z 26008KT 9999 SCT040 SCT060 04/03 Q1024 NOSIG
  • 171820Z 24007KT 9999 SCT040 SCT060 02/02 Q1024 NOSIG

TAF TAF EDDE
Valide du 17 à 18h jusqu'au 18 à 18h UTC


171700Z 1718/1818 24005KT 9999 SCT040
TEMPO 1720/1802 1200 BCFG
PROB30
TEMPO 1720/1802 0200 FG BKN001
BECMG 1802/1805 22010KT
PROB30
TEMPO 1803/1808 2500 BR BKN004
BECMG 1809/1812 24015G25KT
PROB30
TEMPO 1815/1818 SHRA BKN015CB
Pas de NOTAMs connus pour ce terrain.



MET'MAP, la Météo Aéronautique d'un coup d'oeil ! - Copyright ORBIFLY Décembre 2007 - Disclaimer

ORBIFLY MET'MAP TEAM :

Programmation & Développement : Alexandra Zaïnal
Conception & Développement : Baudouin d'Aumeries
Co-Programmation & Développement : Marc-Olivier Méhu
Soutien technique & logistique : Manuel Goepfert

Contact : metmap@orbifly.com




SOURCES & CREDITS :

   NOAA